sensor_id;sensor_type;location;lat;lon;timestamp;temperature;humidity
15930;DHT22;8064;51.142;4.780;2024-01-15T00:01:30;3.10;99.90
15930;DHT22;8064;51.142;4.780;2024-01-15T00:03:56;3.10;99.90
15930;DHT22;8064;51.142;4.780;2024-01-15T00:06:21;3.10;99.90
15930;DHT22;8064;51.142;4.780;2024-01-15T00:08:47;3.00;99.90
15930;DHT22;8064;51.142;4.780;2024-01-15T00:11:13;2.90;99.90
15930;DHT22;8064;51.142;4.780;2024-01-15T00:13:39;2.90;99.90
15930;DHT22;8064;51.142;4.780;2024-01-15T00:16:05;2.70;99.90
15930;DHT22;8064;51.142;4.780;2024-01-15T00:18:30;2.70;99.90
15930;DHT22;8064;51.142;4.780;2024-01-15T00:20:56;2.60;99.90
15930;DHT22;8064;51.142;4.780;2024-01-15T00:23:22;2.60;99.90
15930;DHT22;8064;51.142;4.780;2024-01-15T00:25:50;2.50;99.90
15930;DHT22;8064;51.142;4.780;2024-01-15T00:28:16;2.50;99.90
15930;DHT22;8064;51.142;4.780;2024-01-15T00:30:41;2.40;99.90
15930;DHT22;8064;51.142;4.780;2024-01-15T00:33:07;2.40;99.90
15930;DHT22;8064;51.142;4.780;2024-01-15T00:35:33;2.40;99.90
15930;DHT22;8064;51.142;4.780;2024-01-15T00:37:59;2.40;99.90
15930;DHT22;8064;51.142;4.780;2024-01-15T00:40:24;2.40;99.90
15930;DHT22;8064;51.142;4.780;2024-01-15T00:42:51;2.40;99.90
15930;DHT22;8064;51.142;4.780;2024-01-15T00:45:17;2.40;99.90
15930;DHT22;8064;51.142;4.780;2024-01-15T00:47:42;2.40;99.90
15930;DHT22;8064;51.142;4.780;2024-01-15T00:50:09;2.40;99.90
15930;DHT22;8064;51.142;4.780;2024-01-15T00:52:35;2.30;99.90
15930;DHT22;8064;51.142;4.780;2024-01-15T00:55:01;2.30;99.90
15930;DHT22;8064;51.142;4.780;2024-01-15T00:57:27;2.40;99.90
15930;DHT22;8064;51.142;4.780;2024-01-15T00:59:52;2.30;99.90
15930;DHT22;8064;51.142;4.780;2024-01-15T01:02:18;2.40;99.90
15930;DHT22;8064;51.142;4.780;2024-01-15T01:04:44;2.40;99.90
15930;DHT22;8064;51.142;4.780;2024-01-15T01:07:10;2.40;99.90
15930;DHT22;8064;51.142;4.780;2024-01-15T01:09:36;2.40;99.90
15930;DHT22;8064;51.142;4.780;2024-01-15T01:12:01;2.40;99.90
15930;DHT22;8064;51.142;4.780;2024-01-15T01:14:27;2.40;99.90
15930;DHT22;8064;51.142;4.780;2024-01-15T01:16:53;2.40;99.90
15930;DHT22;8064;51.142;4.780;2024-01-15T01:19:18;2.40;99.90
15930;DHT22;8064;51.142;4.780;2024-01-15T01:21:44;2.50;99.90
15930;DHT22;8064;51.142;4.780;2024-01-15T01:24:10;2.50;99.90
15930;DHT22;8064;51.142;4.780;2024-01-15T01:26:36;2.60;99.90
15930;DHT22;8064;51.142;4.780;2024-01-15T01:29:01;2.60;99.90
15930;DHT22;8064;51.142;4.780;2024-01-15T01:31:27;2.70;99.90
15930;DHT22;8064;51.142;4.780;2024-01-15T01:33:53;2.80;99.90
15930;DHT22;8064;51.142;4.780;2024-01-15T01:36:19;2.80;99.90
15930;DHT22;8064;51.142;4.780;2024-01-15T01:38:44;2.90;99.90
15930;DHT22;8064;51.142;4.780;2024-01-15T01:41:10;2.90;99.90
15930;DHT22;8064;51.142;4.780;2024-01-15T01:43:36;3.00;99.90
15930;DHT22;8064;51.142;4.780;2024-01-15T01:46:02;3.00;99.90
15930;DHT22;8064;51.142;4.780;2024-01-15T01:48:29;3.00;99.90
15930;DHT22;8064;51.142;4.780;2024-01-15T01:50:58;3.00;99.90
15930;DHT22;8064;51.142;4.780;2024-01-15T01:53:26;2.90;99.90
15930;DHT22;8064;51.142;4.780;2024-01-15T01:55:53;2.90;99.90
15930;DHT22;8064;51.142;4.780;2024-01-15T01:58:19;2.90;99.90
15930;DHT22;8064;51.142;4.780;2024-01-15T02:00:46;2.90;99.90
15930;DHT22;8064;51.142;4.780;2024-01-15T02:03:12;2.80;99.90
15930;DHT22;8064;51.142;4.780;2024-01-15T02:05:39;2.80;99.90
15930;DHT22;8064;51.142;4.780;2024-01-15T02:08:06;2.80;99.90
15930;DHT22;8064;51.142;4.780;2024-01-15T02:10:31;2.80;99.90
15930;DHT22;8064;51.142;4.780;2024-01-15T02:12:58;2.80;99.90
15930;DHT22;8064;51.142;4.780;2024-01-15T02:15:24;2.80;99.90
15930;DHT22;8064;51.142;4.780;2024-01-15T02:18:00;2.80;99.90
15930;DHT22;8064;51.142;4.780;2024-01-15T02:20:27;2.90;99.90
15930;DHT22;8064;51.142;4.780;2024-01-15T02:22:52;2.90;99.90
15930;DHT22;8064;51.142;4.780;2024-01-15T02:25:19;3.00;99.90
15930;DHT22;8064;51.142;4.780;2024-01-15T02:27:45;3.00;99.90
15930;DHT22;8064;51.142;4.780;2024-01-15T02:30:12;3.00;99.90
15930;DHT22;8064;51.142;4.780;2024-01-15T02:32:38;3.00;99.90
15930;DHT22;8064;51.142;4.780;2024-01-15T02:35:04;3.00;99.90
15930;DHT22;8064;51.142;4.780;2024-01-15T02:37:30;2.90;99.90
15930;DHT22;8064;51.142;4.780;2024-01-15T02:39:56;2.90;99.90
15930;DHT22;8064;51.142;4.780;2024-01-15T02:42:22;2.90;99.90
15930;DHT22;8064;51.142;4.780;2024-01-15T02:44:47;2.80;99.90
15930;DHT22;8064;51.142;4.780;2024-01-15T02:47:14;2.80;99.90
15930;DHT22;8064;51.142;4.780;2024-01-15T02:49:40;2.80;99.90
15930;DHT22;8064;51.142;4.780;2024-01-15T02:52:06;2.80;99.90
15930;DHT22;8064;51.142;4.780;2024-01-15T02:54:32;2.70;99.90
15930;DHT22;8064;51.142;4.780;2024-01-15T02:56:57;2.70;99.90
15930;DHT22;8064;51.142;4.780;2024-01-15T02:59:23;2.70;99.90
15930;DHT22;8064;51.142;4.780;2024-01-15T03:01:49;2.70;99.90
15930;DHT22;8064;51.142;4.780;2024-01-15T03:04:14;2.70;99.90
15930;DHT22;8064;51.142;4.780;2024-01-15T03:06:40;2.70;99.90
15930;DHT22;8064;51.142;4.780;2024-01-15T03:09:06;2.80;99.90
15930;DHT22;8064;51.142;4.780;2024-01-15T03:11:39;2.70;99.90
15930;DHT22;8064;51.142;4.780;2024-01-15T03:14:05;2.80;99.90
15930;DHT22;8064;51.142;4.780;2024-01-15T03:16:31;2.80;99.90
15930;DHT22;8064;51.142;4.780;2024-01-15T03:18:56;2.80;99.90
15930;DHT22;8064;51.142;4.780;2024-01-15T03:21:22;2.80;99.90
15930;DHT22;8064;51.142;4.780;2024-01-15T03:23:48;2.80;99.90
15930;DHT22;8064;51.142;4.780;2024-01-15T03:26:14;2.80;99.90
15930;DHT22;8064;51.142;4.780;2024-01-15T03:28:39;2.80;99.90
15930;DHT22;8064;51.142;4.780;2024-01-15T03:31:05;2.80;99.90
15930;DHT22;8064;51.142;4.780;2024-01-15T03:33:31;2.80;99.90
15930;DHT22;8064;51.142;4.780;2024-01-15T03:35:57;2.80;99.90
15930;DHT22;8064;51.142;4.780;2024-01-15T03:38:23;2.80;99.90
15930;DHT22;8064;51.142;4.780;2024-01-15T03:40:49;2.80;99.90
15930;DHT22;8064;51.142;4.780;2024-01-15T03:43:14;2.80;99.90
15930;DHT22;8064;51.142;4.780;2024-01-15T03:45:40;2.80;99.90
15930;DHT22;8064;51.142;4.780;2024-01-15T03:48:06;2.80;99.90
15930;DHT22;8064;51.142;4.780;2024-01-15T03:50:32;2.80;99.90
15930;DHT22;8064;51.142;4.780;2024-01-15T03:52:57;2.80;99.90
15930;DHT22;8064;51.142;4.780;2024-01-15T03:55:23;2.80;99.90
15930;DHT22;8064;51.142;4.780;2024-01-15T03:57:49;2.80;99.90
15930;DHT22;8064;51.142;4.780;2024-01-15T04:00:16;2.80;99.90
15930;DHT22;8064;51.142;4.780;2024-01-15T04:02:43;2.80;99.90
15930;DHT22;8064;51.142;4.780;2024-01-15T04:05:10;2.80;99.90
15930;DHT22;8064;51.142;4.780;2024-01-15T04:07:35;2.80;99.90
15930;DHT22;8064;51.142;4.780;2024-01-15T04:10:01;2.80;99.90
15930;DHT22;8064;51.142;4.780;2024-01-15T04:12:27;2.70;99.90
15930;DHT22;8064;51.142;4.780;2024-01-15T04:14:53;2.70;99.90
15930;DHT22;8064;51.142;4.780;2024-01-15T04:17:18;2.70;99.90
15930;DHT22;8064;51.142;4.780;2024-01-15T04:19:44;2.70;99.90
15930;DHT22;8064;51.142;4.780;2024-01-15T04:22:11;2.70;99.90
15930;DHT22;8064;51.142;4.780;2024-01-15T04:24:37;2.70;99.90
15930;DHT22;8064;51.142;4.780;2024-01-15T04:27:02;2.70;99.90
15930;DHT22;8064;51.142;4.780;2024-01-15T04:29:28;2.70;99.90
15930;DHT22;8064;51.142;4.780;2024-01-15T04:31:54;2.70;99.90
15930;DHT22;8064;51.142;4.780;2024-01-15T04:34:20;2.70;99.90
15930;DHT22;8064;51.142;4.780;2024-01-15T04:36:45;2.70;99.90
15930;DHT22;8064;51.142;4.780;2024-01-15T04:39:11;2.70;99.90
15930;DHT22;8064;51.142;4.780;2024-01-15T04:41:37;2.70;99.90
15930;DHT22;8064;51.142;4.780;2024-01-15T04:44:03;2.80;99.90
15930;DHT22;8064;51.142;4.780;2024-01-15T04:46:28;2.80;99.90
15930;DHT22;8064;51.142;4.780;2024-01-15T04:48:54;2.80;99.90
15930;DHT22;8064;51.142;4.780;2024-01-15T04:51:20;2.80;99.90
15930;DHT22;8064;51.142;4.780;2024-01-15T04:53:46;2.80;99.90
15930;DHT22;8064;51.142;4.780;2024-01-15T04:56:11;2.80;99.90
15930;DHT22;8064;51.142;4.780;2024-01-15T04:58:37;2.80;99.90
15930;DHT22;8064;51.142;4.780;2024-01-15T05:01:03;2.80;99.90
15930;DHT22;8064;51.142;4.780;2024-01-15T05:03:29;2.80;99.90
15930;DHT22;8064;51.142;4.780;2024-01-15T05:05:55;2.80;99.90
15930;DHT22;8064;51.142;4.780;2024-01-15T05:08:21;2.80;99.90
15930;DHT22;8064;51.142;4.780;2024-01-15T05:10:47;2.80;99.90
15930;DHT22;8064;51.142;4.780;2024-01-15T05:13:13;2.80;99.90
15930;DHT22;8064;51.142;4.780;2024-01-15T05:15:39;2.80;99.90
15930;DHT22;8064;51.142;4.780;2024-01-15T05:18:05;2.80;99.90
15930;DHT22;8064;51.142;4.780;2024-01-15T05:20:31;2.80;99.90
15930;DHT22;8064;51.142;4.780;2024-01-15T05:22:57;2.80;99.90
15930;DHT22;8064;51.142;4.780;2024-01-15T05:25:22;2.70;99.90
15930;DHT22;8064;51.142;4.780;2024-01-15T05:27:48;2.70;99.90
15930;DHT22;8064;51.142;4.780;2024-01-15T05:30:14;2.70;99.90
15930;DHT22;8064;51.142;4.780;2024-01-15T05:32:40;2.70;99.90
15930;DHT22;8064;51.142;4.780;2024-01-15T05:35:06;2.70;99.90
15930;DHT22;8064;51.142;4.780;2024-01-15T05:37:32;2.70;99.90
15930;DHT22;8064;51.142;4.780;2024-01-15T05:39:58;2.70;99.90
15930;DHT22;8064;51.142;4.780;2024-01-15T05:42:24;2.70;99.90
15930;DHT22;8064;51.142;4.780;2024-01-15T05:44:49;2.80;99.90
15930;DHT22;8064;51.142;4.780;2024-01-15T05:47:15;2.80;99.90
15930;DHT22;8064;51.142;4.780;2024-01-15T05:49:41;2.80;99.90
15930;DHT22;8064;51.142;4.780;2024-01-15T05:52:07;2.80;99.90
15930;DHT22;8064;51.142;4.780;2024-01-15T05:54:32;2.80;99.90
15930;DHT22;8064;51.142;4.780;2024-01-15T05:56:58;2.80;99.90
15930;DHT22;8064;51.142;4.780;2024-01-15T05:59:24;2.80;99.90
15930;DHT22;8064;51.142;4.780;2024-01-15T06:01:50;2.80;99.90
15930;DHT22;8064;51.142;4.780;2024-01-15T06:04:16;2.80;99.90
15930;DHT22;8064;51.142;4.780;2024-01-15T06:06:42;2.80;99.90
15930;DHT22;8064;51.142;4.780;2024-01-15T06:09:07;2.80;99.90
15930;DHT22;8064;51.142;4.780;2024-01-15T06:11:34;2.90;99.90
15930;DHT22;8064;51.142;4.780;2024-01-15T06:14:00;2.90;99.90
15930;DHT22;8064;51.142;4.780;2024-01-15T06:16:26;2.90;99.90
15930;DHT22;8064;51.142;4.780;2024-01-15T06:18:52;2.90;99.90
15930;DHT22;8064;51.142;4.780;2024-01-15T06:21:18;2.90;99.90
15930;DHT22;8064;51.142;4.780;2024-01-15T06:23:43;3.00;99.90
15930;DHT22;8064;51.142;4.780;2024-01-15T06:26:11;3.00;99.90
15930;DHT22;8064;51.142;4.780;2024-01-15T06:28:37;3.10;99.90
15930;DHT22;8064;51.142;4.780;2024-01-15T06:31:03;3.10;99.90
15930;DHT22;8064;51.142;4.780;2024-01-15T06:33:29;3.20;99.90
15930;DHT22;8064;51.142;4.780;2024-01-15T06:35:55;3.20;99.90
15930;DHT22;8064;51.142;4.780;2024-01-15T06:38:21;3.20;99.90
15930;DHT22;8064;51.142;4.780;2024-01-15T06:40:47;3.20;99.90
15930;DHT22;8064;51.142;4.780;2024-01-15T06:43:14;3.20;99.90
15930;DHT22;8064;51.142;4.780;2024-01-15T06:45:41;3.30;99.90
15930;DHT22;8064;51.142;4.780;2024-01-15T06:48:07;3.30;99.90
15930;DHT22;8064;51.142;4.780;2024-01-15T06:50:34;3.30;99.90
15930;DHT22;8064;51.142;4.780;2024-01-15T06:52:59;3.30;99.90
15930;DHT22;8064;51.142;4.780;2024-01-15T06:55:25;3.30;99.90
15930;DHT22;8064;51.142;4.780;2024-01-15T06:57:51;3.30;99.90
15930;DHT22;8064;51.142;4.780;2024-01-15T07:00:17;3.40;99.90
15930;DHT22;8064;51.142;4.780;2024-01-15T07:02:45;3.40;99.90
15930;DHT22;8064;51.142;4.780;2024-01-15T07:05:11;3.40;99.90
15930;DHT22;8064;51.142;4.780;2024-01-15T07:07:37;3.50;99.90
15930;DHT22;8064;51.142;4.780;2024-01-15T07:10:03;3.50;99.90
15930;DHT22;8064;51.142;4.780;2024-01-15T07:12:29;3.50;99.90
15930;DHT22;8064;51.142;4.780;2024-01-15T07:14:56;3.50;99.90
15930;DHT22;8064;51.142;4.780;2024-01-15T07:17:22;3.50;99.90
15930;DHT22;8064;51.142;4.780;2024-01-15T07:19:48;3.40;99.90
15930;DHT22;8064;51.142;4.780;2024-01-15T07:22:14;3.40;99.90
15930;DHT22;8064;51.142;4.780;2024-01-15T07:24:43;3.30;99.90
15930;DHT22;8064;51.142;4.780;2024-01-15T07:27:09;3.30;99.90
15930;DHT22;8064;51.142;4.780;2024-01-15T07:29:35;3.20;99.90
15930;DHT22;8064;51.142;4.780;2024-01-15T07:32:03;3.20;99.90
15930;DHT22;8064;51.142;4.780;2024-01-15T07:34:29;3.20;99.90
15930;DHT22;8064;51.142;4.780;2024-01-15T07:36:55;3.20;99.90
15930;DHT22;8064;51.142;4.780;2024-01-15T07:39:21;3.20;99.90
15930;DHT22;8064;51.142;4.780;2024-01-15T07:41:48;3.20;99.90
15930;DHT22;8064;51.142;4.780;2024-01-15T07:44:14;3.20;99.90
15930;DHT22;8064;51.142;4.780;2024-01-15T07:46:43;3.20;99.90
15930;DHT22;8064;51.142;4.780;2024-01-15T07:49:09;3.20;99.90
15930;DHT22;8064;51.142;4.780;2024-01-15T07:51:35;3.20;99.90
15930;DHT22;8064;51.142;4.780;2024-01-15T07:54:00;3.20;99.90
15930;DHT22;8064;51.142;4.780;2024-01-15T07:56:26;3.20;99.90
15930;DHT22;8064;51.142;4.780;2024-01-15T07:58:53;3.10;99.90
15930;DHT22;8064;51.142;4.780;2024-01-15T08:01:18;3.00;99.90
15930;DHT22;8064;51.142;4.780;2024-01-15T08:03:44;3.00;99.90
15930;DHT22;8064;51.142;4.780;2024-01-15T08:06:10;2.90;99.90
15930;DHT22;8064;51.142;4.780;2024-01-15T08:08:37;2.80;99.90
15930;DHT22;8064;51.142;4.780;2024-01-15T08:11:03;2.80;99.90
15930;DHT22;8064;51.142;4.780;2024-01-15T08:13:28;2.80;99.90
15930;DHT22;8064;51.142;4.780;2024-01-15T08:15:54;2.70;99.90
15930;DHT22;8064;51.142;4.780;2024-01-15T08:18:20;2.70;99.90
15930;DHT22;8064;51.142;4.780;2024-01-15T08:20:47;2.70;99.90
15930;DHT22;8064;51.142;4.780;2024-01-15T08:23:13;2.70;99.90
15930;DHT22;8064;51.142;4.780;2024-01-15T08:25:38;2.70;99.90
15930;DHT22;8064;51.142;4.780;2024-01-15T08:28:04;2.70;99.90
15930;DHT22;8064;51.142;4.780;2024-01-15T08:30:30;2.60;99.90
15930;DHT22;8064;51.142;4.780;2024-01-15T08:32:57;2.70;99.90
15930;DHT22;8064;51.142;4.780;2024-01-15T08:35:23;2.70;99.90
15930;DHT22;8064;51.142;4.780;2024-01-15T08:37:50;2.70;99.90
15930;DHT22;8064;51.142;4.780;2024-01-15T08:40:16;2.70;99.90
15930;DHT22;8064;51.142;4.780;2024-01-15T08:42:42;2.70;99.90
15930;DHT22;8064;51.142;4.780;2024-01-15T08:45:09;2.70;99.90
15930;DHT22;8064;51.142;4.780;2024-01-15T08:47:35;2.70;99.90
15930;DHT22;8064;51.142;4.780;2024-01-15T08:50:01;2.70;99.90
15930;DHT22;8064;51.142;4.780;2024-01-15T08:52:27;2.70;99.90
15930;DHT22;8064;51.142;4.780;2024-01-15T08:54:53;2.70;99.90
15930;DHT22;8064;51.142;4.780;2024-01-15T08:57:18;2.70;99.90
15930;DHT22;8064;51.142;4.780;2024-01-15T08:59:44;2.70;99.90
15930;DHT22;8064;51.142;4.780;2024-01-15T09:02:10;2.80;99.90
15930;DHT22;8064;51.142;4.780;2024-01-15T09:04:36;2.80;99.90
15930;DHT22;8064;51.142;4.780;2024-01-15T09:07:02;2.80;99.90
15930;DHT22;8064;51.142;4.780;2024-01-15T09:09:27;2.80;99.90
15930;DHT22;8064;51.142;4.780;2024-01-15T09:11:53;2.90;99.90
15930;DHT22;8064;51.142;4.780;2024-01-15T09:14:19;2.90;99.90
15930;DHT22;8064;51.142;4.780;2024-01-15T09:16:46;2.90;99.90
15930;DHT22;8064;51.142;4.780;2024-01-15T09:19:12;3.00;99.90
15930;DHT22;8064;51.142;4.780;2024-01-15T09:21:38;3.10;99.90
15930;DHT22;8064;51.142;4.780;2024-01-15T09:24:05;3.20;99.90
15930;DHT22;8064;51.142;4.780;2024-01-15T09:26:31;3.30;99.90
15930;DHT22;8064;51.142;4.780;2024-01-15T09:28:57;3.50;99.90
15930;DHT22;8064;51.142;4.780;2024-01-15T09:31:23;3.70;99.90
15930;DHT22;8064;51.142;4.780;2024-01-15T09:33:49;4.00;99.90
15930;DHT22;8064;51.142;4.780;2024-01-15T09:36:18;4.20;99.90
15930;DHT22;8064;51.142;4.780;2024-01-15T09:38:45;4.20;99.90
15930;DHT22;8064;51.142;4.780;2024-01-15T09:41:11;4.30;99.90
15930;DHT22;8064;51.142;4.780;2024-01-15T09:43:37;4.40;99.90
15930;DHT22;8064;51.142;4.780;2024-01-15T09:46:03;4.70;99.90
15930;DHT22;8064;51.142;4.780;2024-01-15T09:48:29;7.40;99.90
15930;DHT22;8064;51.142;4.780;2024-01-15T09:50:57;10.60;99.90
15930;DHT22;8064;51.142;4.780;2024-01-15T09:53:25;13.50;99.90
15930;DHT22;8064;51.142;4.780;2024-01-15T09:55:52;15.90;99.90
15930;DHT22;8064;51.142;4.780;2024-01-15T09:58:18;17.70;97.60
15930;DHT22;8064;51.142;4.780;2024-01-15T10:00:44;19.40;94.70
15930;DHT22;8064;51.142;4.780;2024-01-15T10:03:13;20.60;91.80
15930;DHT22;8064;51.142;4.780;2024-01-15T10:05:39;21.70;89.80
15930;DHT22;8064;51.142;4.780;2024-01-15T10:08:05;22.80;86.00
15930;DHT22;8064;51.142;4.780;2024-01-15T10:10:31;23.80;81.90
15930;DHT22;8064;51.142;4.780;2024-01-15T10:12:58;24.50;77.70
15930;DHT22;8064;51.142;4.780;2024-01-15T10:15:28;25.30;74.40
15930;DHT22;8064;51.142;4.780;2024-01-15T10:17:55;26.10;71.00
15930;DHT22;8064;51.142;4.780;2024-01-15T10:20:22;26.60;67.20
15930;DHT22;8064;51.142;4.780;2024-01-15T10:22:50;27.10;64.60
15930;DHT22;8064;51.142;4.780;2024-01-15T10:25:16;27.70;62.40
15930;DHT22;8064;51.142;4.780;2024-01-15T10:27:59;28.20;59.40
15930;DHT22;8064;51.142;4.780;2024-01-15T10:30:25;27.60;58.90
15930;DHT22;8064;51.142;4.780;2024-01-15T10:33:00;27.60;59.90
15930;DHT22;8064;51.142;4.780;2024-01-15T10:35:30;26.40;59.20
15930;DHT22;8064;51.142;4.780;2024-01-15T10:38:00;23.80;62.60
15930;DHT22;8064;51.142;4.780;2024-01-15T10:40:28;20.90;65.70
15930;DHT22;8064;51.142;4.780;2024-01-15T10:42:54;18.40;69.70
15930;DHT22;8064;51.142;4.780;2024-01-15T10:45:20;16.40;72.90
15930;DHT22;8064;51.142;4.780;2024-01-15T10:47:45;14.70;75.70
15930;DHT22;8064;51.142;4.780;2024-01-15T10:50:12;13.20;77.70
15930;DHT22;8064;51.142;4.780;2024-01-15T10:52:39;12.00;79.60
15930;DHT22;8064;51.142;4.780;2024-01-15T10:55:07;10.80;81.10
15930;DHT22;8064;51.142;4.780;2024-01-15T10:57:36;9.80;84.10
15930;DHT22;8064;51.142;4.780;2024-01-15T11:00:03;8.90;85.90
15930;DHT22;8064;51.142;4.780;2024-01-15T11:02:33;8.20;87.70
15930;DHT22;8064;51.142;4.780;2024-01-15T11:05:00;7.70;89.30
15930;DHT22;8064;51.142;4.780;2024-01-15T11:07:26;7.20;90.30
15930;DHT22;8064;51.142;4.780;2024-01-15T11:09:52;6.80;91.00
15930;DHT22;8064;51.142;4.780;2024-01-15T11:12:18;6.40;91.60
15930;DHT22;8064;51.142;4.780;2024-01-15T11:14:47;6.20;92.50
15930;DHT22;8064;51.142;4.780;2024-01-15T11:17:13;6.00;92.70
15930;DHT22;8064;51.142;4.780;2024-01-15T11:19:48;5.80;93.30
15930;DHT22;8064;51.142;4.780;2024-01-15T11:25:01;5.40;94.40
15930;DHT22;8064;51.142;4.780;2024-01-15T11:27:40;5.20;94.60
15930;DHT22;8064;51.142;4.780;2024-01-15T11:30:08;5.00;95.30
15930;DHT22;8064;51.142;4.780;2024-01-15T11:32:40;4.80;95.70
15930;DHT22;8064;51.142;4.780;2024-01-15T11:35:07;4.60;96.10
15930;DHT22;8064;51.142;4.780;2024-01-15T11:40:18;4.50;97.20
15930;DHT22;8064;51.142;4.780;2024-01-15T11:42:45;4.40;97.60
15930;DHT22;8064;51.142;4.780;2024-01-15T11:45:11;4.30;98.00
15930;DHT22;8064;51.142;4.780;2024-01-15T11:48:00;4.20;98.40
15930;DHT22;8064;51.142;4.780;2024-01-15T11:50:33;4.10;99.00
15930;DHT22;8064;51.142;4.780;2024-01-15T11:53:02;4.00;99.30
15930;DHT22;8064;51.142;4.780;2024-01-15T11:55:34;3.90;99.70
15930;DHT22;8064;51.142;4.780;2024-01-15T11:58:01;3.90;99.90
15930;DHT22;8064;51.142;4.780;2024-01-15T12:00:28;3.90;99.90
15930;DHT22;8064;51.142;4.780;2024-01-15T12:02:54;4.10;99.90
15930;DHT22;8064;51.142;4.780;2024-01-15T12:05:22;4.40;99.90
15930;DHT22;8064;51.142;4.780;2024-01-15T12:07:49;4.40;99.90
15930;DHT22;8064;51.142;4.780;2024-01-15T12:10:17;4.40;99.90
15930;DHT22;8064;51.142;4.780;2024-01-15T12:13:04;4.40;99.90
15930;DHT22;8064;51.142;4.780;2024-01-15T12:15:31;4.40;99.90
15930;DHT22;8064;51.142;4.780;2024-01-15T12:17:59;4.40;99.90
15930;DHT22;8064;51.142;4.780;2024-01-15T12:20:26;4.70;99.90
15930;DHT22;8064;51.142;4.780;2024-01-15T12:22:52;4.80;99.90
15930;DHT22;8064;51.142;4.780;2024-01-15T12:25:19;4.70;99.90
15930;DHT22;8064;51.142;4.780;2024-01-15T12:27:45;4.60;99.90
15930;DHT22;8064;51.142;4.780;2024-01-15T12:30:12;4.40;99.90
15930;DHT22;8064;51.142;4.780;2024-01-15T12:32:40;4.30;99.90
15930;DHT22;8064;51.142;4.780;2024-01-15T12:35:07;4.20;99.90
15930;DHT22;8064;51.142;4.780;2024-01-15T12:37:35;4.00;99.90
15930;DHT22;8064;51.142;4.780;2024-01-15T12:40:02;3.90;99.90
15930;DHT22;8064;51.142;4.780;2024-01-15T12:42:28;3.80;99.90
15930;DHT22;8064;51.142;4.780;2024-01-15T12:44:56;3.70;99.90
15930;DHT22;8064;51.142;4.780;2024-01-15T12:47:22;3.70;99.90
15930;DHT22;8064;51.142;4.780;2024-01-15T12:49:48;3.70;99.90
15930;DHT22;8064;51.142;4.780;2024-01-15T12:52:18;3.70;99.90
15930;DHT22;8064;51.142;4.780;2024-01-15T12:54:44;3.70;99.90
15930;DHT22;8064;51.142;4.780;2024-01-15T12:57:09;3.70;99.90
15930;DHT22;8064;51.142;4.780;2024-01-15T12:59:35;3.80;99.90
15930;DHT22;8064;51.142;4.780;2024-01-15T13:02:01;3.80;99.90
15930;DHT22;8064;51.142;4.780;2024-01-15T13:04:27;3.80;99.90
15930;DHT22;8064;51.142;4.780;2024-01-15T13:06:53;3.80;99.90
15930;DHT22;8064;51.142;4.780;2024-01-15T13:09:19;3.80;99.90
15930;DHT22;8064;51.142;4.780;2024-01-15T13:11:45;3.80;99.90
15930;DHT22;8064;51.142;4.780;2024-01-15T13:14:12;3.80;99.90
15930;DHT22;8064;51.142;4.780;2024-01-15T13:16:40;3.80;99.90
15930;DHT22;8064;51.142;4.780;2024-01-15T13:19:09;4.10;99.90
15930;DHT22;8064;51.142;4.780;2024-01-15T13:21:37;4.30;99.90
15930;DHT22;8064;51.142;4.780;2024-01-15T13:24:03;4.80;99.90
15930;DHT22;8064;51.142;4.780;2024-01-15T13:26:33;5.00;99.90
15930;DHT22;8064;51.142;4.780;2024-01-15T13:29:00;5.00;99.90
15930;DHT22;8064;51.142;4.780;2024-01-15T13:31:27;4.90;99.90
15930;DHT22;8064;51.142;4.780;2024-01-15T13:33:54;4.70;99.90
15930;DHT22;8064;51.142;4.780;2024-01-15T13:36:22;4.70;99.90
15930;DHT22;8064;51.142;4.780;2024-01-15T13:38:50;4.60;99.90
15930;DHT22;8064;51.142;4.780;2024-01-15T13:41:17;4.50;99.90
15930;DHT22;8064;51.142;4.780;2024-01-15T13:43:47;4.50;99.90
15930;DHT22;8064;51.142;4.780;2024-01-15T13:46:13;4.40;99.90
15930;DHT22;8064;51.142;4.780;2024-01-15T13:48:39;4.60;99.90
15930;DHT22;8064;51.142;4.780;2024-01-15T13:51:05;4.70;99.90
15930;DHT22;8064;51.142;4.780;2024-01-15T13:53:31;5.10;99.90
15930;DHT22;8064;51.142;4.780;2024-01-15T13:55:57;5.40;99.90
15930;DHT22;8064;51.142;4.780;2024-01-15T13:58:23;5.70;99.90
15930;DHT22;8064;51.142;4.780;2024-01-15T14:00:51;5.90;99.90
15930;DHT22;8064;51.142;4.780;2024-01-15T14:03:17;6.10;99.90
15930;DHT22;8064;51.142;4.780;2024-01-15T14:05:43;6.20;99.90
15930;DHT22;8064;51.142;4.780;2024-01-15T14:08:08;6.10;99.90
15930;DHT22;8064;51.142;4.780;2024-01-15T14:10:34;6.00;99.90
15930;DHT22;8064;51.142;4.780;2024-01-15T14:13:00;5.80;99.90
15930;DHT22;8064;51.142;4.780;2024-01-15T14:15:26;5.60;99.90
15930;DHT22;8064;51.142;4.780;2024-01-15T14:17:52;5.40;99.90
15930;DHT22;8064;51.142;4.780;2024-01-15T14:20:18;5.30;99.90
15930;DHT22;8064;51.142;4.780;2024-01-15T14:22:44;5.10;99.90
15930;DHT22;8064;51.142;4.780;2024-01-15T14:25:10;4.90;99.90
15930;DHT22;8064;51.142;4.780;2024-01-15T14:27:36;4.80;99.90
15930;DHT22;8064;51.142;4.780;2024-01-15T14:30:02;4.60;99.90
15930;DHT22;8064;51.142;4.780;2024-01-15T14:32:28;4.50;99.90
15930;DHT22;8064;51.142;4.780;2024-01-15T14:34:54;4.30;99.90
15930;DHT22;8064;51.142;4.780;2024-01-15T14:37:22;4.10;99.90
15930;DHT22;8064;51.142;4.780;2024-01-15T14:39:48;3.90;99.90
15930;DHT22;8064;51.142;4.780;2024-01-15T14:42:13;3.80;99.90
15930;DHT22;8064;51.142;4.780;2024-01-15T14:44:39;3.70;99.90
15930;DHT22;8064;51.142;4.780;2024-01-15T14:47:06;3.70;99.90
15930;DHT22;8064;51.142;4.780;2024-01-15T14:49:33;3.60;99.90
15930;DHT22;8064;51.142;4.780;2024-01-15T14:51:59;3.60;99.90
15930;DHT22;8064;51.142;4.780;2024-01-15T14:54:25;3.60;99.90
15930;DHT22;8064;51.142;4.780;2024-01-15T14:56:51;3.60;99.90
15930;DHT22;8064;51.142;4.780;2024-01-15T14:59:17;3.60;99.90
15930;DHT22;8064;51.142;4.780;2024-01-15T15:01:43;3.50;99.90
15930;DHT22;8064;51.142;4.780;2024-01-15T15:04:09;3.50;99.90
15930;DHT22;8064;51.142;4.780;2024-01-15T15:06:36;3.60;99.90
15930;DHT22;8064;51.142;4.780;2024-01-15T15:09:03;3.60;99.90
15930;DHT22;8064;51.142;4.780;2024-01-15T15:11:34;3.60;99.90
15930;DHT22;8064;51.142;4.780;2024-01-15T15:14:00;3.60;99.90
15930;DHT22;8064;51.142;4.780;2024-01-15T15:16:26;3.60;99.90
15930;DHT22;8064;51.142;4.780;2024-01-15T15:18:53;3.70;99.90
15930;DHT22;8064;51.142;4.780;2024-01-15T15:21:20;3.70;99.90
15930;DHT22;8064;51.142;4.780;2024-01-15T15:23:46;3.70;99.90
15930;DHT22;8064;51.142;4.780;2024-01-15T15:26:13;3.70;99.90
15930;DHT22;8064;51.142;4.780;2024-01-15T15:28:39;3.70;99.90
15930;DHT22;8064;51.142;4.780;2024-01-15T15:31:06;3.60;99.90
15930;DHT22;8064;51.142;4.780;2024-01-15T15:33:34;3.50;99.90
15930;DHT22;8064;51.142;4.780;2024-01-15T15:36:00;3.40;99.90
15930;DHT22;8064;51.142;4.780;2024-01-15T15:38:31;3.30;99.90
15930;DHT22;8064;51.142;4.780;2024-01-15T15:40:57;3.20;99.90
15930;DHT22;8064;51.142;4.780;2024-01-15T15:43:23;3.10;99.90
15930;DHT22;8064;51.142;4.780;2024-01-15T15:45:49;3.10;99.90
15930;DHT22;8064;51.142;4.780;2024-01-15T15:48:14;3.00;99.90
15930;DHT22;8064;51.142;4.780;2024-01-15T15:50:40;2.90;99.90
15930;DHT22;8064;51.142;4.780;2024-01-15T15:53:06;2.80;99.90
15930;DHT22;8064;51.142;4.780;2024-01-15T15:55:32;2.80;99.90
15930;DHT22;8064;51.142;4.780;2024-01-15T15:57:57;2.80;99.90
15930;DHT22;8064;51.142;4.780;2024-01-15T16:00:24;2.70;99.90